Home / US / Tennessee / Johnson

Johnson, TN Weather

Current Report for Sun Mar 18 2018

As of 10:53 AM CDT SUN MAR 18 2018

52°F 11°cJohnson weather conditions : Mostly Cloudy

Mostly Cloudy

Barometer: 30.00 inHg. falling

Humidity: 72%

Wind: N. 0mph

Wind Gust: 2mph

Wind Chill: 52°F

Dew Point: 43°F steady

Visibility: 10.00mi.

Sunrise: 6:35 AM

Sunset: 6:39 PM

Moon Phase: Waxing Crescent Moon

Daily and Hourly Summary

Loading Johnson TN Summary and Hourly data for today, tonight and tomorrow...
Forecast for Johnson, TN:
(Forecast based on TAF for )
0727 AM CDT SUN MAR 18 2018
Overcast Partly Cloudy Partly Cloudy Partly Cloudy Overcast
Overcast Partly
Original Encoded TAF:
Dated: 0727 AM CDT SUN MAR 18 2018
2018/03/18 12:27
TAF KTRI 181124Z 1812/1912 34006KT P6SM OVC025 
     FM181700 VRB03KT P6SM SCT035 SCT250 
     FM190300 00000KT P6SM BKN050 OVC200 
     FM190800 VRB03KT P6SM BKN035 OVC100

Temperatures Today (View More Charts)

Johnson, TN updates by locals

Write your own report, forecast, or traffic update:

Please note by clicking on "Post" you acknowledge that you have read the Terms of Service and the report and/or forecast you are posting is in compliance with such terms. Be respectful. An inappropriate post will be removed by a moderator. If you are not finding the information you want, please be sure to note the navigation tabs just above the breadcrumbs, which are links to other data relating to this city.